sensor_id;sensor_type;location;lat;lon;timestamp;pressure;altitude;pressure_sealevel;temperature;humidity
41712;BME280;27399;51.516;13.670;2022-12-07T00:00:40;100278.47;;;5.24;88.22
41712;BME280;27399;51.516;13.670;2022-12-07T00:03:06;100272.06;;;5.02;88.88
41712;BME280;27399;51.516;13.670;2022-12-07T00:05:32;100276.41;;;4.94;88.68
41712;BME280;27399;51.516;13.670;2022-12-07T00:07:57;100270.44;;;5.14;88.85
41712;BME280;27399;51.516;13.670;2022-12-07T00:10:23;100268.53;;;5.00;89.27
41712;BME280;27399;51.516;13.670;2022-12-07T00:12:48;100264.44;;;5.27;88.09
41712;BME280;27399;51.516;13.670;2022-12-07T00:15:15;100258.97;;;5.11;88.87
41712;BME280;27399;51.516;13.670;2022-12-07T00:17:41;100258.03;;;5.06;87.58
41712;BME280;27399;51.516;13.670;2022-12-07T00:20:07;100255.81;;;4.68;88.03
41712;BME280;27399;51.516;13.670;2022-12-07T00:22:32;100249.25;;;5.09;87.39
41712;BME280;27399;51.516;13.670;2022-12-07T00:24:58;100242.28;;;5.16;87.13
41712;BME280;27399;51.516;13.670;2022-12-07T00:27:23;100241.16;;;4.95;87.42
41712;BME280;27399;51.516;13.670;2022-12-07T00:29:49;100244.94;;;5.17;86.80
41712;BME280;27399;51.516;13.670;2022-12-07T00:32:14;100241.38;;;5.12;86.75
41712;BME280;27399;51.516;13.670;2022-12-07T00:34:40;100229.84;;;5.08;87.75
41712;BME280;27399;51.516;13.670;2022-12-07T00:37:06;100235.94;;;5.03;88.31
41712;BME280;27399;51.516;13.670;2022-12-07T00:39:31;100236.03;;;5.09;87.60
41712;BME280;27399;51.516;13.670;2022-12-07T00:41:57;100233.41;;;5.10;88.00
41712;BME280;27399;51.516;13.670;2022-12-07T00:44:22;100233.38;;;5.07;88.19
41712;BME280;27399;51.516;13.670;2022-12-07T00:46:48;100237.66;;;4.97;88.50
41712;BME280;27399;51.516;13.670;2022-12-07T00:49:14;100230.41;;;4.78;88.27
41712;BME280;27399;51.516;13.670;2022-12-07T00:51:39;100235.78;;;4.89;87.94
41712;BME280;27399;51.516;13.670;2022-12-07T00:54:05;100235.13;;;5.08;87.22
41712;BME280;27399;51.516;13.670;2022-12-07T00:56:30;100237.72;;;5.04;87.07
41712;BME280;27399;51.516;13.670;2022-12-07T00:59:01;100236.75;;;4.94;87.22
41712;BME280;27399;51.516;13.670;2022-12-07T01:01:30;100238.53;;;4.95;86.91
41712;BME280;27399;51.516;13.670;2022-12-07T01:03:56;100244.63;;;4.92;87.13
41712;BME280;27399;51.516;13.670;2022-12-07T01:06:23;100244.63;;;4.92;87.38
41712;BME280;27399;51.516;13.670;2022-12-07T01:08:49;100242.19;;;5.08;87.60
41712;BME280;27399;51.516;13.670;2022-12-07T01:11:17;100243.34;;;4.56;87.86
41712;BME280;27399;51.516;13.670;2022-12-07T01:13:43;100243.72;;;4.86;87.38
41712;BME280;27399;51.516;13.670;2022-12-07T01:16:11;100247.06;;;4.71;88.76
41712;BME280;27399;51.516;13.670;2022-12-07T01:18:41;100240.09;;;4.79;87.81
41712;BME280;27399;51.516;13.670;2022-12-07T01:21:09;100242.09;;;4.97;87.71
41712;BME280;27399;51.516;13.670;2022-12-07T01:23:36;100246.50;;;5.01;86.80
41712;BME280;27399;51.516;13.670;2022-12-07T01:26:04;100249.53;;;4.61;88.16
41712;BME280;27399;51.516;13.670;2022-12-07T01:28:31;100233.03;;;4.78;87.93
41712;BME280;27399;51.516;13.670;2022-12-07T01:30:59;100243.72;;;4.87;86.62
41712;BME280;27399;51.516;13.670;2022-12-07T01:33:30;100235.84;;;4.92;86.73
41712;BME280;27399;51.516;13.670;2022-12-07T01:38:42;100242.91;;;4.94;86.96
41712;BME280;27399;51.516;13.670;2022-12-07T01:41:08;100241.19;;;4.96;86.07
41712;BME280;27399;51.516;13.670;2022-12-07T01:43:34;100237.56;;;4.90;86.04
41712;BME280;27399;51.516;13.670;2022-12-07T01:46:02;100236.75;;;4.94;85.66
41712;BME280;27399;51.516;13.670;2022-12-07T01:48:34;100230.34;;;4.76;86.92
41712;BME280;27399;51.516;13.670;2022-12-07T01:51:05;100236.28;;;4.57;84.96
41712;BME280;27399;51.516;13.670;2022-12-07T01:53:36;100241.69;;;4.66;85.32
41712;BME280;27399;51.516;13.670;2022-12-07T01:56:03;100245.16;;;4.62;85.09
41712;BME280;27399;51.516;13.670;2022-12-07T01:58:31;100238.28;;;4.73;85.21
41712;BME280;27399;51.516;13.670;2022-12-07T02:00:56;100236.28;;;4.57;84.41
41712;BME280;27399;51.516;13.670;2022-12-07T02:03:29;100237.88;;;4.42;85.36
41712;BME280;27399;51.516;13.670;2022-12-07T02:05:57;100244.19;;;4.54;85.41
41712;BME280;27399;51.516;13.670;2022-12-07T02:08:25;100238.97;;;4.58;84.26
41712;BME280;27399;51.516;13.670;2022-12-07T02:10:51;100238.97;;;4.58;83.64
41712;BME280;27399;51.516;13.670;2022-12-07T02:13:20;100234.72;;;4.71;82.66
41712;BME280;27399;51.516;13.670;2022-12-07T02:18:16;100222.41;;;4.73;83.89
41712;BME280;27399;51.516;13.670;2022-12-07T02:31:56;100194.81;;;4.51;82.40
41712;BME280;27399;51.516;13.670;2022-12-07T02:39:54;100201.94;;;4.54;83.23
41712;BME280;27399;51.516;13.670;2022-12-07T02:42:34;100208.72;;;4.34;83.80
41712;BME280;27399;51.516;13.670;2022-12-07T02:45:01;100208.88;;;4.48;83.59
41712;BME280;27399;51.516;13.670;2022-12-07T02:47:29;100198.16;;;4.36;84.01
41712;BME280;27399;51.516;13.670;2022-12-07T02:49:56;100186.84;;;4.43;83.81
41712;BME280;27399;51.516;13.670;2022-12-07T02:52:22;100185.22;;;4.55;83.50
41712;BME280;27399;51.516;13.670;2022-12-07T02:54:48;100188.56;;;4.43;83.89
41712;BME280;27399;51.516;13.670;2022-12-07T02:57:35;100187.81;;;4.52;83.69
41712;BME280;27399;51.516;13.670;2022-12-07T03:00:11;100181.50;;;4.39;84.16
41712;BME280;27399;51.516;13.670;2022-12-07T03:02:58;100179.88;;;4.52;84.31
41712;BME280;27399;51.516;13.670;2022-12-07T03:05:38;100172.72;;;4.43;85.58
41712;BME280;27399;51.516;13.670;2022-12-07T03:11:08;100181.34;;;4.28;86.38
41712;BME280;27399;51.516;13.670;2022-12-07T03:16:45;100172.63;;;4.35;86.44
41712;BME280;27399;51.516;13.670;2022-12-07T03:19:18;100166.47;;;4.33;86.68
41712;BME280;27399;51.516;13.670;2022-12-07T03:21:49;100169.28;;;4.48;85.60
41712;BME280;27399;51.516;13.670;2022-12-07T03:24:21;100176.63;;;4.03;87.89
41712;BME280;27399;51.516;13.670;2022-12-07T03:26:51;100168.63;;;3.99;88.07
41712;BME280;27399;51.516;13.670;2022-12-07T03:29:24;100161.75;;;4.10;88.18
41712;BME280;27399;51.516;13.670;2022-12-07T03:31:55;100166.06;;;4.02;88.17
41712;BME280;27399;51.516;13.670;2022-12-07T03:34:38;100162.56;;;4.06;88.57
41712;BME280;27399;51.516;13.670;2022-12-07T03:37:14;100164.41;;;4.10;88.69
41712;BME280;27399;51.516;13.670;2022-12-07T03:42:38;100147.88;;;4.25;88.21
41712;BME280;27399;51.516;13.670;2022-12-07T03:45:05;100142.16;;;3.93;88.76
41712;BME280;27399;51.516;13.670;2022-12-07T03:47:48;100135.44;;;4.15;88.05
41712;BME280;27399;51.516;13.670;2022-12-07T03:50:32;100145.94;;;4.10;88.43
41712;BME280;27399;51.516;13.670;2022-12-07T03:53:30;100137.78;;;3.95;88.46
41712;BME280;27399;51.516;13.670;2022-12-07T03:55:59;100145.06;;;4.11;88.78
41712;BME280;27399;51.516;13.670;2022-12-07T03:58:25;100131.81;;;4.08;88.27
41712;BME280;27399;51.516;13.670;2022-12-07T04:00:51;100121.19;;;4.02;88.83
41712;BME280;27399;51.516;13.670;2022-12-07T04:03:17;100130.66;;;3.89;88.54
41712;BME280;27399;51.516;13.670;2022-12-07T04:05:43;100125.44;;;3.91;88.64
41712;BME280;27399;51.516;13.670;2022-12-07T04:08:09;100121.66;;;3.73;89.43
41712;BME280;27399;51.516;13.670;2022-12-07T04:10:35;100121.91;;;3.92;88.57
41712;BME280;27399;51.516;13.670;2022-12-07T04:13:01;100114.88;;;3.92;88.19
41712;BME280;27399;51.516;13.670;2022-12-07T04:15:27;100107.91;;;3.96;88.31
41712;BME280;27399;51.516;13.670;2022-12-07T04:17:52;100103.47;;;3.95;87.50
41712;BME280;27399;51.516;13.670;2022-12-07T04:20:19;100106.81;;;3.81;88.22
41712;BME280;27399;51.516;13.670;2022-12-07T04:22:44;100107.81;;;3.90;87.71
41712;BME280;27399;51.516;13.670;2022-12-07T04:25:10;100100.59;;;3.78;87.95
41712;BME280;27399;51.516;13.670;2022-12-07T04:27:35;100090.84;;;3.69;87.76
41712;BME280;27399;51.516;13.670;2022-12-07T04:30:02;100097.84;;;3.67;87.56
41712;BME280;27399;51.516;13.670;2022-12-07T04:32:27;100095.81;;;3.50;88.09
41712;BME280;27399;51.516;13.670;2022-12-07T04:34:53;100087.63;;;3.93;87.30
41712;BME280;27399;51.516;13.670;2022-12-07T04:37:19;100084.88;;;3.85;86.89
41712;BME280;27399;51.516;13.670;2022-12-07T04:39:44;100084.97;;;3.92;87.06
41712;BME280;27399;51.516;13.670;2022-12-07T04:42:10;100077.19;;;4.01;86.81
41712;BME280;27399;51.516;13.670;2022-12-07T04:44:36;100080.22;;;3.66;87.17
41712;BME280;27399;51.516;13.670;2022-12-07T04:47:02;100071.81;;;3.93;87.03
41712;BME280;27399;51.516;13.670;2022-12-07T04:49:28;100073.75;;;4.08;86.84
41712;BME280;27399;51.516;13.670;2022-12-07T04:51:53;100076.97;;;3.85;86.76
41712;BME280;27399;51.516;13.670;2022-12-07T04:54:19;100070.78;;;3.82;86.97
41712;BME280;27399;51.516;13.670;2022-12-07T04:56:45;100062.50;;;3.55;86.94
41712;BME280;27399;51.516;13.670;2022-12-07T04:59:12;100066.34;;;3.79;86.69
41712;BME280;27399;51.516;13.670;2022-12-07T05:01:38;100071.28;;;3.56;87.05
41712;BME280;27399;51.516;13.670;2022-12-07T05:04:04;100062.38;;;3.48;86.64
41712;BME280;27399;51.516;13.670;2022-12-07T05:06:29;100058.22;;;3.64;86.76
41712;BME280;27399;51.516;13.670;2022-12-07T05:08:55;100055.59;;;3.64;87.01
41712;BME280;27399;51.516;13.670;2022-12-07T05:11:21;100067.13;;;3.72;86.82
41712;BME280;27399;51.516;13.670;2022-12-07T05:14:19;100062.69;;;3.71;86.77
41712;BME280;27399;51.516;13.670;2022-12-07T05:16:47;100059.25;;;3.75;86.25
41712;BME280;27399;51.516;13.670;2022-12-07T05:19:13;100055.91;;;3.88;86.33
41712;BME280;27399;51.516;13.670;2022-12-07T05:21:39;100057.69;;;3.90;87.18
41712;BME280;27399;51.516;13.670;2022-12-07T05:24:06;100053.56;;;4.13;85.83
41712;BME280;27399;51.516;13.670;2022-12-07T05:26:32;100052.38;;;3.86;85.66
41712;BME280;27399;51.516;13.670;2022-12-07T05:28:58;100039.91;;;3.75;85.80
41712;BME280;27399;51.516;13.670;2022-12-07T05:31:25;100036.56;;;3.88;85.47
41712;BME280;27399;51.516;13.670;2022-12-07T05:33:51;100035.41;;;3.66;85.87
41712;BME280;27399;51.516;13.670;2022-12-07T05:36:17;100039.19;;;3.88;85.57
41712;BME280;27399;51.516;13.670;2022-12-07T05:38:42;100029.69;;;4.01;85.30
41712;BME280;27399;51.516;13.670;2022-12-07T05:41:08;100035.63;;;3.83;85.41
41712;BME280;27399;51.516;13.670;2022-12-07T05:43:55;100035.00;;;4.04;85.45
41712;BME280;27399;51.516;13.670;2022-12-07T05:46:20;100028.47;;;3.72;85.50
41712;BME280;27399;51.516;13.670;2022-12-07T05:48:46;100032.94;;;3.78;85.61
41712;BME280;27399;51.516;13.670;2022-12-07T05:51:11;100030.56;;;4.00;85.28
41712;BME280;27399;51.516;13.670;2022-12-07T05:53:37;100022.56;;;3.94;85.23
41712;BME280;27399;51.516;13.670;2022-12-07T05:56:03;100025.34;;;4.08;85.27
41712;BME280;27399;51.516;13.670;2022-12-07T05:58:28;100026.91;;;3.88;85.21
41712;BME280;27399;51.516;13.670;2022-12-07T06:01:12;100027.06;;;4.01;85.31
41712;BME280;27399;51.516;13.670;2022-12-07T06:03:38;100025.34;;;4.06;85.41
41712;BME280;27399;51.516;13.670;2022-12-07T06:06:03;100027.16;;;4.12;86.39
41712;BME280;27399;51.516;13.670;2022-12-07T06:08:29;100028.78;;;4.00;85.68
41712;BME280;27399;51.516;13.670;2022-12-07T06:10:54;100030.41;;;3.86;85.73
41712;BME280;27399;51.516;13.670;2022-12-07T06:13:40;100021.72;;;3.96;85.92
41712;BME280;27399;51.516;13.670;2022-12-07T06:16:06;100026.09;;;3.96;86.51
41712;BME280;27399;51.516;13.670;2022-12-07T06:18:32;100028.78;;;4.00;86.16
41712;BME280;27399;51.516;13.670;2022-12-07T06:20:58;100029.63;;;3.96;86.25
41712;BME280;27399;51.516;13.670;2022-12-07T06:23:23;100025.97;;;3.85;86.49
41712;BME280;27399;51.516;13.670;2022-12-07T06:25:49;100025.03;;;3.81;87.30
41712;BME280;27399;51.516;13.670;2022-12-07T06:28:14;100023.19;;;3.74;88.05
41712;BME280;27399;51.516;13.670;2022-12-07T06:30:40;100020.66;;;3.80;87.32
41712;BME280;27399;51.516;13.670;2022-12-07T06:33:06;100016.94;;;3.66;87.72
41712;BME280;27399;51.516;13.670;2022-12-07T06:35:32;100019.94;;;3.95;87.37
41712;BME280;27399;51.516;13.670;2022-12-07T06:37:58;100018.00;;;3.80;88.03
41712;BME280;27399;51.516;13.670;2022-12-07T06:40:24;100010.00;;;3.74;87.97
41712;BME280;27399;51.516;13.670;2022-12-07T06:42:50;100018.03;;;3.82;88.45
41712;BME280;27399;51.516;13.670;2022-12-07T06:45:15;100010.00;;;3.74;88.45
41712;BME280;27399;51.516;13.670;2022-12-07T06:47:41;100016.78;;;3.55;89.03
41712;BME280;27399;51.516;13.670;2022-12-07T06:50:07;100018.81;;;3.76;88.87
41712;BME280;27399;51.516;13.670;2022-12-07T06:52:33;100014.34;;;3.70;89.19
41712;BME280;27399;51.516;13.670;2022-12-07T06:54:59;100015.31;;;3.77;88.70
41712;BME280;27399;51.516;13.670;2022-12-07T06:57:25;100013.50;;;3.71;89.05
41712;BME280;27399;51.516;13.670;2022-12-07T06:59:51;100021.53;;;3.82;88.99
41712;BME280;27399;51.516;13.670;2022-12-07T07:02:17;100015.31;;;3.76;89.45
41712;BME280;27399;51.516;13.670;2022-12-07T07:04:43;100005.31;;;3.51;90.16
41712;BME280;27399;51.516;13.670;2022-12-07T07:07:09;100019.47;;;3.58;90.06
41712;BME280;27399;51.516;13.670;2022-12-07T07:09:35;100025.13;;;3.87;89.45
41712;BME280;27399;51.516;13.670;2022-12-07T07:12:00;100024.78;;;3.61;90.17
41712;BME280;27399;51.516;13.670;2022-12-07T07:14:26;100013.28;;;3.54;89.80
41712;BME280;27399;51.516;13.670;2022-12-07T07:16:52;100017.06;;;3.75;89.96
41712;BME280;27399;51.516;13.670;2022-12-07T07:19:18;100022.50;;;3.87;89.85
41712;BME280;27399;51.516;13.670;2022-12-07T07:21:43;100019.91;;;3.91;89.98
41712;BME280;27399;51.516;13.670;2022-12-07T07:24:09;100018.88;;;3.79;89.62
41712;BME280;27399;51.516;13.670;2022-12-07T07:26:35;100017.13;;;3.81;90.82
41712;BME280;27399;51.516;13.670;2022-12-07T07:29:01;100004.72;;;3.72;90.64
41712;BME280;27399;51.516;13.670;2022-12-07T07:31:26;100017.13;;;3.81;90.27
41712;BME280;27399;51.516;13.670;2022-12-07T07:33:52;100008.22;;;3.73;90.79
41712;BME280;27399;51.516;13.670;2022-12-07T07:36:18;100012.84;;;3.93;90.66
41712;BME280;27399;51.516;13.670;2022-12-07T07:38:43;100013.63;;;3.82;90.78
41712;BME280;27399;51.516;13.670;2022-12-07T07:41:09;100010.00;;;3.72;91.23
41712;BME280;27399;51.516;13.670;2022-12-07T07:43:35;100018.19;;;3.97;90.64
41712;BME280;27399;51.516;13.670;2022-12-07T07:46:01;100017.00;;;3.72;91.83
41712;BME280;27399;51.516;13.670;2022-12-07T07:48:26;100017.00;;;3.72;91.30
41712;BME280;27399;51.516;13.670;2022-12-07T07:50:52;100014.47;;;3.80;91.60
41712;BME280;27399;51.516;13.670;2022-12-07T07:53:18;100017.16;;;3.84;91.26
41712;BME280;27399;51.516;13.670;2022-12-07T07:55:53;100009.28;;;3.87;90.95
41712;BME280;27399;51.516;13.670;2022-12-07T07:58:20;100009.47;;;4.01;91.18
41712;BME280;27399;51.516;13.670;2022-12-07T08:00:46;100017.13;;;3.81;92.13
41712;BME280;27399;51.516;13.670;2022-12-07T08:03:11;100016.25;;;3.79;92.31
41712;BME280;27399;51.516;13.670;2022-12-07T08:05:37;100008.63;;;4.06;91.53
41712;BME280;27399;51.516;13.670;2022-12-07T08:08:03;100009.69;;;4.23;90.86
41712;BME280;27399;51.516;13.670;2022-12-07T08:10:29;100002.78;;;3.61;91.64
41712;BME280;27399;51.516;13.670;2022-12-07T08:12:57;100002.44;;;4.02;91.67
41712;BME280;27399;51.516;13.670;2022-12-07T08:15:43;100004.94;;;3.93;91.76
41712;BME280;27399;51.516;13.670;2022-12-07T08:18:10;100006.59;;;3.83;92.58
41712;BME280;27399;51.516;13.670;2022-12-07T08:20:37;100003.25;;;3.96;92.18
41712;BME280;27399;51.516;13.670;2022-12-07T08:23:04;100006.88;;;4.06;92.11
41712;BME280;27399;51.516;13.670;2022-12-07T08:25:31;100003.47;;;4.16;91.49
41712;BME280;27399;51.516;13.670;2022-12-07T08:27:56;99996.41;;;4.15;92.05
41712;BME280;27399;51.516;13.670;2022-12-07T08:30:22;100004.50;;;4.32;91.00
41712;BME280;27399;51.516;13.670;2022-12-07T08:32:49;99997.50;;;4.34;91.20
41712;BME280;27399;51.516;13.670;2022-12-07T08:35:15;100006.50;;;4.55;90.90
41712;BME280;27399;51.516;13.670;2022-12-07T08:37:41;100006.56;;;4.66;90.27
41712;BME280;27399;51.516;13.670;2022-12-07T08:40:08;99995.25;;;4.79;90.01
41712;BME280;27399;51.516;13.670;2022-12-07T08:42:35;100003.97;;;4.69;91.19
41712;BME280;27399;51.516;13.670;2022-12-07T08:45:13;100011.84;;;4.64;90.81
41712;BME280;27399;51.516;13.670;2022-12-07T08:47:43;100005.09;;;4.96;89.82
41712;BME280;27399;51.516;13.670;2022-12-07T08:50:11;100005.78;;;4.73;90.48
41712;BME280;27399;51.516;13.670;2022-12-07T08:52:37;100002.34;;;4.85;90.42
41712;BME280;27399;51.516;13.670;2022-12-07T08:55:05;100007.47;;;4.65;90.55
41712;BME280;27399;51.516;13.670;2022-12-07T08:57:33;100003.22;;;4.83;90.34
41712;BME280;27399;51.516;13.670;2022-12-07T09:00:00;100003.25;;;4.86;90.79
41712;BME280;27399;51.516;13.670;2022-12-07T09:02:26;100004.22;;;4.97;90.15
41712;BME280;27399;51.516;13.670;2022-12-07T09:04:52;100006.97;;;5.11;90.13
41712;BME280;27399;51.516;13.670;2022-12-07T09:07:18;100013.66;;;4.70;90.68
41712;BME280;27399;51.516;13.670;2022-12-07T09:09:43;100011.09;;;4.78;91.15
41712;BME280;27399;51.516;13.670;2022-12-07T09:12:09;100008.59;;;4.98;90.95
41712;BME280;27399;51.516;13.670;2022-12-07T09:14:35;100009.56;;;5.06;90.46
41712;BME280;27399;51.516;13.670;2022-12-07T09:17:08;100014.06;;;5.17;90.04
41712;BME280;27399;51.516;13.670;2022-12-07T09:19:35;100016.81;;;5.34;89.69
41712;BME280;27399;51.516;13.670;2022-12-07T09:22:01;100012.31;;;5.22;90.11
41712;BME280;27399;51.516;13.670;2022-12-07T09:24:27;100011.53;;;5.35;90.02
41712;BME280;27399;51.516;13.670;2022-12-07T09:26:53;100013.31;;;5.41;88.95
41712;BME280;27399;51.516;13.670;2022-12-07T09:29:18;100009.72;;;5.30;89.49
41712;BME280;27399;51.516;13.670;2022-12-07T09:31:44;100007.25;;;5.61;89.73
41712;BME280;27399;51.516;13.670;2022-12-07T09:34:10;100001.84;;;5.39;90.07
41712;BME280;27399;51.516;13.670;2022-12-07T09:36:35;100015.91;;;5.33;90.58
41712;BME280;27399;51.516;13.670;2022-12-07T09:39:01;100019.53;;;5.51;90.13
41712;BME280;27399;51.516;13.670;2022-12-07T09:41:30;100013.38;;;5.55;89.04
41712;BME280;27399;51.516;13.670;2022-12-07T09:44:10;100000.13;;;5.52;89.04
41712;BME280;27399;51.516;13.670;2022-12-07T09:46:39;100009.75;;;5.33;90.29
41712;BME280;27399;51.516;13.670;2022-12-07T09:49:28;100015.13;;;5.53;88.75
41712;BME280;27399;51.516;13.670;2022-12-07T09:52:03;100010.84;;;5.70;88.50
41712;BME280;27399;51.516;13.670;2022-12-07T09:54:45;99999.31;;;5.62;87.96
41712;BME280;27399;51.516;13.670;2022-12-07T09:57:12;100015.91;;;5.32;88.26
41712;BME280;27399;51.516;13.670;2022-12-07T09:59:38;100008.03;;;5.42;87.63
41712;BME280;27399;51.516;13.670;2022-12-07T10:02:34;100006.25;;;5.41;89.31
41712;BME280;27399;51.516;13.670;2022-12-07T10:05:00;100008.78;;;5.23;88.28
41712;BME280;27399;51.516;13.670;2022-12-07T10:07:26;100007.94;;;5.30;87.29
41712;BME280;27399;51.516;13.670;2022-12-07T10:09:52;100001.09;;;5.68;88.20
41712;BME280;27399;51.516;13.670;2022-12-07T10:12:18;100006.41;;;5.66;87.38
41712;BME280;27399;51.516;13.670;2022-12-07T10:14:55;100001.13;;;5.77;86.71
41712;BME280;27399;51.516;13.670;2022-12-07T10:17:41;100000.19;;;5.61;86.93
41712;BME280;27399;51.516;13.670;2022-12-07T10:23:00;99994.97;;;5.78;86.67
41712;BME280;27399;51.516;13.670;2022-12-07T10:25:36;99996.66;;;5.57;86.49
41712;BME280;27399;51.516;13.670;2022-12-07T10:28:12;99996.66;;;5.54;86.71
41712;BME280;27399;51.516;13.670;2022-12-07T10:33:38;100007.31;;;5.73;86.56
41712;BME280;27399;51.516;13.670;2022-12-07T10:39:01;100005.53;;;5.73;86.78
41712;BME280;27399;51.516;13.670;2022-12-07T10:41:27;100005.53;;;5.73;86.41
41712;BME280;27399;51.516;13.670;2022-12-07T10:43:56;100009.03;;;5.65;86.99
41712;BME280;27399;51.516;13.670;2022-12-07T11:00:03;99992.34;;;5.75;86.15
41712;BME280;27399;51.516;13.670;2022-12-07T11:02:39;99996.78;;;5.82;86.06
41712;BME280;27399;51.516;13.670;2022-12-07T11:11:14;99975.50;;;5.61;84.34
41712;BME280;27399;51.516;13.670;2022-12-07T11:21:56;99991.44;;;5.79;84.29
41712;BME280;27399;51.516;13.670;2022-12-07T11:24:34;99912.81;;;5.39;84.36
41712;BME280;27399;51.516;13.670;2022-12-07T11:29:59;99990.56;;;5.74;84.94
41712;BME280;27399;51.516;13.670;2022-12-07T11:37:43;99978.25;;;5.81;81.16
41712;BME280;27399;51.516;13.670;2022-12-07T11:40:25;99981.72;;;5.73;81.72
41712;BME280;27399;51.516;13.670;2022-12-07T11:43:01;99989.72;;;5.84;82.05
41712;BME280;27399;51.516;13.670;2022-12-07T11:45:32;99982.66;;;5.83;83.16
41712;BME280;27399;51.516;13.670;2022-12-07T11:50:57;99978.28;;;5.90;81.41
41712;BME280;27399;51.516;13.670;2022-12-07T11:53:37;99977.34;;;5.85;81.88
41712;BME280;27399;51.516;13.670;2022-12-07T11:58:49;99980.09;;;6.03;83.35
41712;BME280;27399;51.516;13.670;2022-12-07T12:06:45;99975.56;;;5.78;81.38
41712;BME280;27399;51.516;13.670;2022-12-07T12:19:28;99968.66;;;6.01;83.00
41712;BME280;27399;51.516;13.670;2022-12-07T12:22:03;99960.69;;;6.04;83.58
41712;BME280;27399;51.516;13.670;2022-12-07T12:24:32;99965.13;;;6.09;82.20
41712;BME280;27399;51.516;13.670;2022-12-07T12:27:07;99963.31;;;6.00;84.67
41712;BME280;27399;51.516;13.670;2022-12-07T12:29:39;99971.28;;;6.01;83.12
41712;BME280;27399;51.516;13.670;2022-12-07T12:32:21;99974.81;;;6.02;83.13
41712;BME280;27399;51.516;13.670;2022-12-07T12:42:53;99966.00;;;6.03;81.98
41712;BME280;27399;51.516;13.670;2022-12-07T12:45:28;99970.28;;;5.84;83.69
41712;BME280;27399;51.516;13.670;2022-12-07T12:47:56;99967.78;;;6.18;80.99
41712;BME280;27399;51.516;13.670;2022-12-07T12:50:36;99952.66;;;5.86;81.23
41712;BME280;27399;51.516;13.670;2022-12-07T12:56:07;99966.78;;;5.89;81.52
41712;BME280;27399;51.516;13.670;2022-12-07T12:58:39;99974.81;;;6.03;81.53
41712;BME280;27399;51.516;13.670;2022-12-07T13:04:20;99953.56;;;5.82;82.68
41712;BME280;27399;51.516;13.670;2022-12-07T13:06:47;99962.41;;;5.96;83.52
41712;BME280;27399;51.516;13.670;2022-12-07T13:09:23;99949.13;;;5.84;84.13
41712;BME280;27399;51.516;13.670;2022-12-07T13:11:56;99962.50;;;6.21;82.69
41712;BME280;27399;51.516;13.670;2022-12-07T13:14:52;99952.78;;;6.12;81.98
41712;BME280;27399;51.516;13.670;2022-12-07T13:19:57;99950.13;;;6.12;81.88
41712;BME280;27399;51.516;13.670;2022-12-07T13:25:31;99950.09;;;6.04;83.75
41712;BME280;27399;51.516;13.670;2022-12-07T13:30:45;99942.16;;;6.00;83.86
41712;BME280;27399;51.516;13.670;2022-12-07T13:33:12;99958.84;;;5.94;82.59
41712;BME280;27399;51.516;13.670;2022-12-07T13:35:38;99957.19;;;6.02;82.99
41712;BME280;27399;51.516;13.670;2022-12-07T13:41:14;99955.44;;;6.15;83.36
41712;BME280;27399;51.516;13.670;2022-12-07T13:43:54;99948.38;;;6.13;82.71
41712;BME280;27399;51.516;13.670;2022-12-07T13:46:31;99952.78;;;6.11;83.26
41712;BME280;27399;51.516;13.670;2022-12-07T13:48:59;99946.59;;;6.18;83.01
41712;BME280;27399;51.516;13.670;2022-12-07T13:51:26;99913.06;;;6.06;82.38
41712;BME280;27399;51.516;13.670;2022-12-07T13:54:00;99949.16;;;5.96;83.05
41712;BME280;27399;51.516;13.670;2022-12-07T13:56:31;99951.88;;;6.09;84.14
41712;BME280;27399;51.516;13.670;2022-12-07T13:58:58;99950.13;;;6.01;83.09
41712;BME280;27399;51.516;13.670;2022-12-07T14:01:25;99953.63;;;6.00;83.08
41712;BME280;27399;51.516;13.670;2022-12-07T14:03:51;99951.00;;;6.07;83.99
41712;BME280;27399;51.516;13.670;2022-12-07T14:06:22;99935.88;;;5.74;83.24
41712;BME280;27399;51.516;13.670;2022-12-07T14:08:51;99957.19;;;6.19;82.45
41712;BME280;27399;51.516;13.670;2022-12-07T14:11:31;99949.25;;;6.27;82.90
41712;BME280;27399;51.516;13.670;2022-12-07T14:18:50;99946.59;;;6.12;82.99
41712;BME280;27399;51.516;13.670;2022-12-07T14:21:20;99949.28;;;6.26;83.31
41712;BME280;27399;51.516;13.670;2022-12-07T14:24:12;99944.78;;;6.00;84.26
41712;BME280;27399;51.516;13.670;2022-12-07T14:26:40;99947.47;;;6.03;83.58
41712;BME280;27399;51.516;13.670;2022-12-07T14:29:38;99946.59;;;6.15;84.13
41712;BME280;27399;51.516;13.670;2022-12-07T14:32:25;99940.44;;;6.19;84.02
41712;BME280;27399;51.516;13.670;2022-12-07T14:35:17;99943.06;;;6.30;83.14
41712;BME280;27399;51.516;13.670;2022-12-07T14:37:44;99940.44;;;6.17;84.02
41712;BME280;27399;51.516;13.670;2022-12-07T14:40:21;99943.97;;;6.18;84.54
41712;BME280;27399;51.516;13.670;2022-12-07T14:42:55;99948.34;;;6.00;84.49
41712;BME280;27399;51.516;13.670;2022-12-07T14:45:23;99946.63;;;6.30;83.49
41712;BME280;27399;51.516;13.670;2022-12-07T14:47:49;99946.63;;;6.27;83.77
41712;BME280;27399;51.516;13.670;2022-12-07T14:50:17;99940.34;;;5.99;84.25
41712;BME280;27399;51.516;13.670;2022-12-07T14:52:51;99928.06;;;6.07;84.08
41712;BME280;27399;51.516;13.670;2022-12-07T14:55:28;99944.84;;;6.11;83.72
41712;BME280;27399;51.516;13.670;2022-12-07T14:57:54;99947.47;;;6.11;84.58
41712;BME280;27399;51.516;13.670;2022-12-07T15:00:22;99942.97;;;5.88;84.44
41712;BME280;27399;51.516;13.670;2022-12-07T15:02:49;99936.78;;;5.80;85.00
41712;BME280;27399;51.516;13.670;2022-12-07T15:05:15;99936.78;;;5.83;84.59
41712;BME280;27399;51.516;13.670;2022-12-07T15:07:41;99942.06;;;5.83;85.26
41712;BME280;27399;51.516;13.670;2022-12-07T15:10:17;99935.00;;;5.76;83.93